sensor_id;sensor_type;location;lat;lon;timestamp;temperature;humidity
2465;DHT22;1244;54.326;10.074;2023-05-01T00:00:49;7.70;99.90
2465;DHT22;1244;54.326;10.074;2023-05-01T00:03:14;7.70;99.90
2465;DHT22;1244;54.326;10.074;2023-05-01T00:05:42;7.80;99.90
2465;DHT22;1244;54.326;10.074;2023-05-01T00:08:08;7.80;99.90
2465;DHT22;1244;54.326;10.074;2023-05-01T00:10:35;7.70;99.90
2465;DHT22;1244;54.326;10.074;2023-05-01T00:13:01;7.70;99.90
2465;DHT22;1244;54.326;10.074;2023-05-01T00:15:26;7.70;99.90
2465;DHT22;1244;54.326;10.074;2023-05-01T00:17:52;7.70;99.90
2465;DHT22;1244;54.326;10.074;2023-05-01T00:20:18;7.70;99.90
2465;DHT22;1244;54.326;10.074;2023-05-01T00:22:43;7.50;99.90
2465;DHT22;1244;54.326;10.074;2023-05-01T00:25:09;7.60;99.90
2465;DHT22;1244;54.326;10.074;2023-05-01T00:27:35;7.60;99.90
2465;DHT22;1244;54.326;10.074;2023-05-01T00:30:00;7.50;99.90
2465;DHT22;1244;54.326;10.074;2023-05-01T00:32:26;7.60;99.90
2465;DHT22;1244;54.326;10.074;2023-05-01T00:34:52;7.70;99.90
2465;DHT22;1244;54.326;10.074;2023-05-01T00:37:17;7.60;99.90
2465;DHT22;1244;54.326;10.074;2023-05-01T00:39:43;7.30;99.90
2465;DHT22;1244;54.326;10.074;2023-05-01T00:42:08;7.50;99.90
2465;DHT22;1244;54.326;10.074;2023-05-01T00:44:34;7.50;99.90
2465;DHT22;1244;54.326;10.074;2023-05-01T00:46:59;7.60;99.90
2465;DHT22;1244;54.326;10.074;2023-05-01T00:49:26;7.50;99.90
2465;DHT22;1244;54.326;10.074;2023-05-01T00:51:52;7.40;99.90
2465;DHT22;1244;54.326;10.074;2023-05-01T00:54:19;7.40;99.90
2465;DHT22;1244;54.326;10.074;2023-05-01T00:56:48;7.50;99.90
2465;DHT22;1244;54.326;10.074;2023-05-01T00:59:15;7.40;99.90
2465;DHT22;1244;54.326;10.074;2023-05-01T01:01:41;7.40;99.90
2465;DHT22;1244;54.326;10.074;2023-05-01T01:04:06;7.40;99.90
2465;DHT22;1244;54.326;10.074;2023-05-01T01:09:22;7.20;99.90
2465;DHT22;1244;54.326;10.074;2023-05-01T01:12:15;7.30;99.90
2465;DHT22;1244;54.326;10.074;2023-05-01T01:17:48;7.30;99.90
2465;DHT22;1244;54.326;10.074;2023-05-01T01:23:32;7.20;99.90
2465;DHT22;1244;54.326;10.074;2023-05-01T01:37:03;7.00;99.90
2465;DHT22;1244;54.326;10.074;2023-05-01T01:42:23;7.10;99.90
2465;DHT22;1244;54.326;10.074;2023-05-01T01:44:54;7.00;99.90
2465;DHT22;1244;54.326;10.074;2023-05-01T01:47:23;7.00;99.90
2465;DHT22;1244;54.326;10.074;2023-05-01T01:49:54;7.00;99.90
2465;DHT22;1244;54.326;10.074;2023-05-01T01:52:21;6.90;99.90
2465;DHT22;1244;54.326;10.074;2023-05-01T01:54:54;6.90;99.90
2465;DHT22;1244;54.326;10.074;2023-05-01T01:57:23;6.90;99.90
2465;DHT22;1244;54.326;10.074;2023-05-01T01:59:50;6.90;99.90
2465;DHT22;1244;54.326;10.074;2023-05-01T02:02:18;6.80;99.90
2465;DHT22;1244;54.326;10.074;2023-05-01T02:04:50;6.80;99.90
2465;DHT22;1244;54.326;10.074;2023-05-01T02:07:18;6.60;99.90
2465;DHT22;1244;54.326;10.074;2023-05-01T02:09:45;6.70;99.90
2465;DHT22;1244;54.326;10.074;2023-05-01T02:12:12;6.60;99.90
2465;DHT22;1244;54.326;10.074;2023-05-01T02:14:39;6.60;99.90
2465;DHT22;1244;54.326;10.074;2023-05-01T02:17:05;6.50;99.90
2465;DHT22;1244;54.326;10.074;2023-05-01T02:19:33;6.50;99.90
2465;DHT22;1244;54.326;10.074;2023-05-01T02:22:00;6.60;99.90
2465;DHT22;1244;54.326;10.074;2023-05-01T02:24:28;6.50;99.90
2465;DHT22;1244;54.326;10.074;2023-05-01T02:27:06;6.50;99.90
2465;DHT22;1244;54.326;10.074;2023-05-01T02:29:32;6.50;99.90
2465;DHT22;1244;54.326;10.074;2023-05-01T02:31:59;6.20;99.90
2465;DHT22;1244;54.326;10.074;2023-05-01T02:34:25;6.30;99.90
2465;DHT22;1244;54.326;10.074;2023-05-01T02:36:51;6.50;99.90
2465;DHT22;1244;54.326;10.074;2023-05-01T02:39:16;6.40;99.90
2465;DHT22;1244;54.326;10.074;2023-05-01T02:41:44;6.30;99.90
2465;DHT22;1244;54.326;10.074;2023-05-01T02:44:11;6.40;99.90
2465;DHT22;1244;54.326;10.074;2023-05-01T02:46:38;6.30;99.90
2465;DHT22;1244;54.326;10.074;2023-05-01T02:49:07;6.40;99.90
2465;DHT22;1244;54.326;10.074;2023-05-01T02:51:34;6.30;99.90
2465;DHT22;1244;54.326;10.074;2023-05-01T02:54:01;6.30;99.90
2465;DHT22;1244;54.326;10.074;2023-05-01T02:56:27;6.30;99.90
2465;DHT22;1244;54.326;10.074;2023-05-01T02:58:53;6.30;99.90
2465;DHT22;1244;54.326;10.074;2023-05-01T03:01:19;6.30;99.90
2465;DHT22;1244;54.326;10.074;2023-05-01T03:03:45;6.30;99.90
2465;DHT22;1244;54.326;10.074;2023-05-01T03:06:11;6.20;99.90
2465;DHT22;1244;54.326;10.074;2023-05-01T03:08:38;6.20;99.90
2465;DHT22;1244;54.326;10.074;2023-05-01T03:11:05;6.10;99.90
2465;DHT22;1244;54.326;10.074;2023-05-01T03:13:31;6.10;99.90
2465;DHT22;1244;54.326;10.074;2023-05-01T03:15:57;6.10;99.90
2465;DHT22;1244;54.326;10.074;2023-05-01T03:18:22;6.10;99.90
2465;DHT22;1244;54.326;10.074;2023-05-01T03:20:54;6.10;99.90
2465;DHT22;1244;54.326;10.074;2023-05-01T03:23:21;6.10;99.90
2465;DHT22;1244;54.326;10.074;2023-05-01T03:25:47;5.90;99.90
2465;DHT22;1244;54.326;10.074;2023-05-01T03:28:13;6.00;99.90
2465;DHT22;1244;54.326;10.074;2023-05-01T03:30:39;6.00;99.90
2465;DHT22;1244;54.326;10.074;2023-05-01T03:33:04;6.10;99.90
2465;DHT22;1244;54.326;10.074;2023-05-01T03:35:30;6.00;99.90
2465;DHT22;1244;54.326;10.074;2023-05-01T03:37:56;5.90;99.90
2465;DHT22;1244;54.326;10.074;2023-05-01T03:40:21;6.00;99.90
2465;DHT22;1244;54.326;10.074;2023-05-01T03:42:47;6.00;99.90
2465;DHT22;1244;54.326;10.074;2023-05-01T03:45:13;6.00;99.90
2465;DHT22;1244;54.326;10.074;2023-05-01T03:47:38;6.00;99.90
2465;DHT22;1244;54.326;10.074;2023-05-01T03:50:04;5.90;99.90
2465;DHT22;1244;54.326;10.074;2023-05-01T03:52:30;6.00;99.90
2465;DHT22;1244;54.326;10.074;2023-05-01T03:54:56;6.00;99.90
2465;DHT22;1244;54.326;10.074;2023-05-01T03:57:21;6.00;99.90
2465;DHT22;1244;54.326;10.074;2023-05-01T03:59:50;6.00;99.90
2465;DHT22;1244;54.326;10.074;2023-05-01T04:02:16;6.10;99.90
2465;DHT22;1244;54.326;10.074;2023-05-01T04:04:41;6.00;99.90
2465;DHT22;1244;54.326;10.074;2023-05-01T04:07:07;5.80;99.90
2465;DHT22;1244;54.326;10.074;2023-05-01T04:09:33;5.90;99.90
2465;DHT22;1244;54.326;10.074;2023-05-01T04:11:59;5.90;99.90
2465;DHT22;1244;54.326;10.074;2023-05-01T04:14:24;5.90;99.90
2465;DHT22;1244;54.326;10.074;2023-05-01T04:16:50;5.90;99.90
2465;DHT22;1244;54.326;10.074;2023-05-01T04:19:16;5.90;99.90
2465;DHT22;1244;54.326;10.074;2023-05-01T04:21:41;5.90;99.90
2465;DHT22;1244;54.326;10.074;2023-05-01T04:24:07;5.90;99.90
2465;DHT22;1244;54.326;10.074;2023-05-01T04:26:32;6.00;99.90
2465;DHT22;1244;54.326;10.074;2023-05-01T04:28:58;6.10;99.90
2465;DHT22;1244;54.326;10.074;2023-05-01T04:31:25;6.10;99.90
2465;DHT22;1244;54.326;10.074;2023-05-01T04:33:50;6.10;99.90
2465;DHT22;1244;54.326;10.074;2023-05-01T04:36:17;6.20;99.90
2465;DHT22;1244;54.326;10.074;2023-05-01T04:38:42;6.20;99.90
2465;DHT22;1244;54.326;10.074;2023-05-01T04:41:08;6.20;99.90
2465;DHT22;1244;54.326;10.074;2023-05-01T04:43:33;6.30;99.90
2465;DHT22;1244;54.326;10.074;2023-05-01T04:45:59;6.30;99.90
2465;DHT22;1244;54.326;10.074;2023-05-01T04:48:24;6.30;99.90
2465;DHT22;1244;54.326;10.074;2023-05-01T04:50:50;6.40;99.90
2465;DHT22;1244;54.326;10.074;2023-05-01T04:53:16;6.40;99.90
2465;DHT22;1244;54.326;10.074;2023-05-01T04:55:41;6.40;99.90
2465;DHT22;1244;54.326;10.074;2023-05-01T04:58:07;6.50;99.90
2465;DHT22;1244;54.326;10.074;2023-05-01T05:00:33;6.60;99.90
2465;DHT22;1244;54.326;10.074;2023-05-01T05:02:58;6.60;99.90
2465;DHT22;1244;54.326;10.074;2023-05-01T05:05:23;6.60;99.90
2465;DHT22;1244;54.326;10.074;2023-05-01T05:07:49;6.60;99.90
2465;DHT22;1244;54.326;10.074;2023-05-01T05:10:15;6.60;99.90
2465;DHT22;1244;54.326;10.074;2023-05-01T05:12:40;6.80;99.90
2465;DHT22;1244;54.326;10.074;2023-05-01T05:15:06;6.80;99.90
2465;DHT22;1244;54.326;10.074;2023-05-01T05:17:32;6.80;99.90
2465;DHT22;1244;54.326;10.074;2023-05-01T05:19:57;6.80;99.90
2465;DHT22;1244;54.326;10.074;2023-05-01T05:22:23;7.00;99.90
2465;DHT22;1244;54.326;10.074;2023-05-01T05:24:54;7.10;99.90
2465;DHT22;1244;54.326;10.074;2023-05-01T05:27:29;7.10;99.90
2465;DHT22;1244;54.326;10.074;2023-05-01T05:29:56;7.30;99.90
2465;DHT22;1244;54.326;10.074;2023-05-01T05:32:22;7.40;99.90
2465;DHT22;1244;54.326;10.074;2023-05-01T05:34:47;7.50;99.90
2465;DHT22;1244;54.326;10.074;2023-05-01T05:37:13;7.70;99.90
2465;DHT22;1244;54.326;10.074;2023-05-01T05:39:39;7.80;99.90
2465;DHT22;1244;54.326;10.074;2023-05-01T05:42:05;7.90;99.90
2465;DHT22;1244;54.326;10.074;2023-05-01T05:44:30;7.90;99.90
2465;DHT22;1244;54.326;10.074;2023-05-01T05:46:57;8.10;99.90
2465;DHT22;1244;54.326;10.074;2023-05-01T05:49:22;8.10;99.90
2465;DHT22;1244;54.326;10.074;2023-05-01T05:51:48;8.20;99.90
2465;DHT22;1244;54.326;10.074;2023-05-01T05:54:13;8.30;99.90
2465;DHT22;1244;54.326;10.074;2023-05-01T05:56:39;8.40;99.90
2465;DHT22;1244;54.326;10.074;2023-05-01T05:59:04;8.40;99.90
2465;DHT22;1244;54.326;10.074;2023-05-01T06:01:30;8.50;99.90
2465;DHT22;1244;54.326;10.074;2023-05-01T06:03:56;8.60;99.90
2465;DHT22;1244;54.326;10.074;2023-05-01T06:06:22;8.70;99.90
2465;DHT22;1244;54.326;10.074;2023-05-01T06:08:48;8.70;99.90
2465;DHT22;1244;54.326;10.074;2023-05-01T06:11:13;8.80;99.90
2465;DHT22;1244;54.326;10.074;2023-05-01T06:13:39;8.80;99.90
2465;DHT22;1244;54.326;10.074;2023-05-01T06:16:05;8.90;99.90
2465;DHT22;1244;54.326;10.074;2023-05-01T06:18:31;9.00;99.90
2465;DHT22;1244;54.326;10.074;2023-05-01T06:20:57;9.10;99.90
2465;DHT22;1244;54.326;10.074;2023-05-01T06:23:24;9.10;99.90
2465;DHT22;1244;54.326;10.074;2023-05-01T06:25:50;9.30;99.90
2465;DHT22;1244;54.326;10.074;2023-05-01T06:28:15;9.30;99.90
2465;DHT22;1244;54.326;10.074;2023-05-01T06:30:41;9.30;99.90
2465;DHT22;1244;54.326;10.074;2023-05-01T06:33:07;9.40;99.90
2465;DHT22;1244;54.326;10.074;2023-05-01T06:35:34;9.50;99.90
2465;DHT22;1244;54.326;10.074;2023-05-01T06:37:59;9.50;99.90
2465;DHT22;1244;54.326;10.074;2023-05-01T06:40:25;9.60;99.90
2465;DHT22;1244;54.326;10.074;2023-05-01T06:42:50;9.60;99.90
2465;DHT22;1244;54.326;10.074;2023-05-01T06:45:16;9.70;99.90
2465;DHT22;1244;54.326;10.074;2023-05-01T06:47:41;9.80;99.90
2465;DHT22;1244;54.326;10.074;2023-05-01T06:50:07;9.90;99.90
2465;DHT22;1244;54.326;10.074;2023-05-01T06:52:33;9.90;99.90
2465;DHT22;1244;54.326;10.074;2023-05-01T06:54:58;10.10;99.90
2465;DHT22;1244;54.326;10.074;2023-05-01T06:57:24;10.20;99.90
2465;DHT22;1244;54.326;10.074;2023-05-01T06:59:50;10.20;99.90
2465;DHT22;1244;54.326;10.074;2023-05-01T07:02:15;10.30;99.90
2465;DHT22;1244;54.326;10.074;2023-05-01T07:04:41;10.40;99.90
2465;DHT22;1244;54.326;10.074;2023-05-01T07:07:08;10.30;99.90
2465;DHT22;1244;54.326;10.074;2023-05-01T07:09:34;10.50;99.90
2465;DHT22;1244;54.326;10.074;2023-05-01T07:12:00;10.60;99.90
2465;DHT22;1244;54.326;10.074;2023-05-01T07:14:27;10.60;99.90
2465;DHT22;1244;54.326;10.074;2023-05-01T07:16:53;10.60;99.90
2465;DHT22;1244;54.326;10.074;2023-05-01T07:19:19;10.60;99.90
2465;DHT22;1244;54.326;10.074;2023-05-01T07:21:45;10.80;99.90
2465;DHT22;1244;54.326;10.074;2023-05-01T07:24:10;10.90;99.90
2465;DHT22;1244;54.326;10.074;2023-05-01T07:26:36;10.90;99.90
2465;DHT22;1244;54.326;10.074;2023-05-01T07:29:03;11.00;99.90
2465;DHT22;1244;54.326;10.074;2023-05-01T07:31:28;10.90;99.90
2465;DHT22;1244;54.326;10.074;2023-05-01T07:33:55;11.00;99.90
2465;DHT22;1244;54.326;10.074;2023-05-01T07:36:21;11.00;99.90
2465;DHT22;1244;54.326;10.074;2023-05-01T07:38:47;11.20;99.90
2465;DHT22;1244;54.326;10.074;2023-05-01T07:41:13;11.30;99.90
2465;DHT22;1244;54.326;10.074;2023-05-01T07:43:38;11.20;99.90
2465;DHT22;1244;54.326;10.074;2023-05-01T07:46:04;11.50;99.90
2465;DHT22;1244;54.326;10.074;2023-05-01T07:48:31;11.80;99.90
2465;DHT22;1244;54.326;10.074;2023-05-01T07:50:56;12.10;99.90
2465;DHT22;1244;54.326;10.074;2023-05-01T07:53:26;12.30;99.90
2465;DHT22;1244;54.326;10.074;2023-05-01T07:55:51;12.60;99.90
2465;DHT22;1244;54.326;10.074;2023-05-01T07:58:17;12.40;99.90
2465;DHT22;1244;54.326;10.074;2023-05-01T08:00:43;12.40;99.90
2465;DHT22;1244;54.326;10.074;2023-05-01T08:03:12;12.50;99.90
2465;DHT22;1244;54.326;10.074;2023-05-01T08:05:40;12.70;99.90
2465;DHT22;1244;54.326;10.074;2023-05-01T08:08:06;12.40;99.90
2465;DHT22;1244;54.326;10.074;2023-05-01T08:10:32;12.70;99.90
2465;DHT22;1244;54.326;10.074;2023-05-01T08:12:57;12.90;99.90
2465;DHT22;1244;54.326;10.074;2023-05-01T08:15:23;13.00;99.90
2465;DHT22;1244;54.326;10.074;2023-05-01T08:17:49;12.90;99.90
2465;DHT22;1244;54.326;10.074;2023-05-01T08:20:15;13.30;99.90
2465;DHT22;1244;54.326;10.074;2023-05-01T08:22:41;13.50;99.90
2465;DHT22;1244;54.326;10.074;2023-05-01T08:25:06;13.50;99.90
2465;DHT22;1244;54.326;10.074;2023-05-01T08:27:32;13.60;99.90
2465;DHT22;1244;54.326;10.074;2023-05-01T08:29:58;13.70;99.90
2465;DHT22;1244;54.326;10.074;2023-05-01T08:32:23;14.20;99.90
2465;DHT22;1244;54.326;10.074;2023-05-01T08:34:49;14.40;99.90
2465;DHT22;1244;54.326;10.074;2023-05-01T08:37:14;14.30;99.90
2465;DHT22;1244;54.326;10.074;2023-05-01T08:39:40;14.40;99.90
2465;DHT22;1244;54.326;10.074;2023-05-01T08:42:05;14.20;99.90
2465;DHT22;1244;54.326;10.074;2023-05-01T08:44:33;14.30;99.90
2465;DHT22;1244;54.326;10.074;2023-05-01T08:47:15;14.70;99.90
2465;DHT22;1244;54.326;10.074;2023-05-01T08:49:41;14.70;99.90
2465;DHT22;1244;54.326;10.074;2023-05-01T08:52:08;14.60;99.90
2465;DHT22;1244;54.326;10.074;2023-05-01T08:54:36;14.40;99.90
2465;DHT22;1244;54.326;10.074;2023-05-01T08:57:03;14.50;99.90
2465;DHT22;1244;54.326;10.074;2023-05-01T08:59:33;14.70;99.90
2465;DHT22;1244;54.326;10.074;2023-05-01T09:02:01;14.90;99.90
2465;DHT22;1244;54.326;10.074;2023-05-01T09:04:31;14.90;99.90
2465;DHT22;1244;54.326;10.074;2023-05-01T09:06:58;15.20;99.90
2465;DHT22;1244;54.326;10.074;2023-05-01T09:09:25;14.90;99.90
2465;DHT22;1244;54.326;10.074;2023-05-01T09:11:55;15.10;99.90
2465;DHT22;1244;54.326;10.074;2023-05-01T09:14:21;15.20;99.90
2465;DHT22;1244;54.326;10.074;2023-05-01T09:16:47;15.30;99.90
2465;DHT22;1244;54.326;10.074;2023-05-01T09:19:13;15.30;99.90
2465;DHT22;1244;54.326;10.074;2023-05-01T09:21:39;15.50;99.90
2465;DHT22;1244;54.326;10.074;2023-05-01T09:24:05;15.20;99.90
2465;DHT22;1244;54.326;10.074;2023-05-01T09:26:31;15.00;99.60
2465;DHT22;1244;54.326;10.074;2023-05-01T09:28:58;15.10;99.90
2465;DHT22;1244;54.326;10.074;2023-05-01T09:31:26;14.80;99.90
2465;DHT22;1244;54.326;10.074;2023-05-01T09:34:04;15.00;99.90
2465;DHT22;1244;54.326;10.074;2023-05-01T09:36:31;15.30;99.70
2465;DHT22;1244;54.326;10.074;2023-05-01T09:38:57;15.40;99.80
2465;DHT22;1244;54.326;10.074;2023-05-01T09:41:24;15.50;99.60
2465;DHT22;1244;54.326;10.074;2023-05-01T09:43:59;16.00;99.90
2465;DHT22;1244;54.326;10.074;2023-05-01T09:46:26;16.50;98.80
2465;DHT22;1244;54.326;10.074;2023-05-01T09:48:59;16.50;98.50
2465;DHT22;1244;54.326;10.074;2023-05-01T09:51:32;16.70;99.90
2465;DHT22;1244;54.326;10.074;2023-05-01T09:54:00;17.00;97.80
2465;DHT22;1244;54.326;10.074;2023-05-01T09:56:28;16.80;98.00
2465;DHT22;1244;54.326;10.074;2023-05-01T09:58:54;16.20;98.10
2465;DHT22;1244;54.326;10.074;2023-05-01T10:01:39;16.60;98.00
2465;DHT22;1244;54.326;10.074;2023-05-01T10:04:05;16.40;97.40
2465;DHT22;1244;54.326;10.074;2023-05-01T10:06:31;17.00;98.50
2465;DHT22;1244;54.326;10.074;2023-05-01T10:08:57;17.10;96.00
2465;DHT22;1244;54.326;10.074;2023-05-01T10:11:22;17.00;96.50
2465;DHT22;1244;54.326;10.074;2023-05-01T10:14:08;16.60;96.70
2465;DHT22;1244;54.326;10.074;2023-05-01T10:16:37;17.00;97.00
2465;DHT22;1244;54.326;10.074;2023-05-01T10:19:04;17.40;97.20
2465;DHT22;1244;54.326;10.074;2023-05-01T10:21:31;17.90;94.70
2465;DHT22;1244;54.326;10.074;2023-05-01T10:24:00;18.30;92.60
2465;DHT22;1244;54.326;10.074;2023-05-01T10:26:28;18.50;90.50
2465;DHT22;1244;54.326;10.074;2023-05-01T10:28:55;19.00;89.20
2465;DHT22;1244;54.326;10.074;2023-05-01T10:33:53;19.50;85.30
2465;DHT22;1244;54.326;10.074;2023-05-01T10:36:37;19.30;84.00
2465;DHT22;1244;54.326;10.074;2023-05-01T10:39:04;19.00;85.10
2465;DHT22;1244;54.326;10.074;2023-05-01T10:44:24;19.10;87.30
2465;DHT22;1244;54.326;10.074;2023-05-01T10:46:51;19.60;83.10
2465;DHT22;1244;54.326;10.074;2023-05-01T10:49:17;19.50;81.30
2465;DHT22;1244;54.326;10.074;2023-05-01T10:54:30;19.90;68.70
2465;DHT22;1244;54.326;10.074;2023-05-01T10:56:58;20.20;70.70
2465;DHT22;1244;54.326;10.074;2023-05-01T10:59:24;20.60;75.50
2465;DHT22;1244;54.326;10.074;2023-05-01T12:49:32;22.30;99.90
2465;DHT22;1244;54.326;10.074;2023-05-01T12:51:59;23.20;99.60
2465;DHT22;1244;54.326;10.074;2023-05-01T12:54:33;23.60;99.80
2465;DHT22;1244;54.326;10.074;2023-05-01T12:57:09;23.60;93.00
2465;DHT22;1244;54.326;10.074;2023-05-01T12:59:39;23.60;91.20
2465;DHT22;1244;54.326;10.074;2023-05-01T13:02:07;23.60;89.80
2465;DHT22;1244;54.326;10.074;2023-05-01T13:04:34;23.50;79.00
2465;DHT22;1244;54.326;10.074;2023-05-01T13:07:00;23.20;80.80
2465;DHT22;1244;54.326;10.074;2023-05-01T13:09:28;23.00;75.40
2465;DHT22;1244;54.326;10.074;2023-05-01T13:12:04;23.30;77.10
2465;DHT22;1244;54.326;10.074;2023-05-01T13:14:40;22.80;77.90
2465;DHT22;1244;54.326;10.074;2023-05-01T13:17:07;22.60;82.90
2465;DHT22;1244;54.326;10.074;2023-05-01T13:19:33;22.80;80.00
2465;DHT22;1244;54.326;10.074;2023-05-01T13:21:59;22.60;83.00
2465;DHT22;1244;54.326;10.074;2023-05-01T13:24:41;22.20;87.80
2465;DHT22;1244;54.326;10.074;2023-05-01T13:27:09;21.80;83.10
2465;DHT22;1244;54.326;10.074;2023-05-01T13:29:35;22.00;81.20
2465;DHT22;1244;54.326;10.074;2023-05-01T13:32:05;22.00;82.90
2465;DHT22;1244;54.326;10.074;2023-05-01T13:34:34;22.00;81.20
2465;DHT22;1244;54.326;10.074;2023-05-01T13:37:01;22.00;85.80
2465;DHT22;1244;54.326;10.074;2023-05-01T13:39:26;21.40;86.40
2465;DHT22;1244;54.326;10.074;2023-05-01T13:41:53;21.70;88.70
2465;DHT22;1244;54.326;10.074;2023-05-01T13:44:20;21.20;88.50
2465;DHT22;1244;54.326;10.074;2023-05-01T13:46:46;21.20;88.50
2465;DHT22;1244;54.326;10.074;2023-05-01T13:49:12;21.40;87.30
2465;DHT22;1244;54.326;10.074;2023-05-01T13:51:43;21.40;91.30
2465;DHT22;1244;54.326;10.074;2023-05-01T13:54:09;21.40;88.50
2465;DHT22;1244;54.326;10.074;2023-05-01T13:56:37;21.00;90.70
2465;DHT22;1244;54.326;10.074;2023-05-01T13:59:07;21.00;87.30
2465;DHT22;1244;54.326;10.074;2023-05-01T14:01:42;21.00;86.00
2465;DHT22;1244;54.326;10.074;2023-05-01T14:04:14;21.10;87.00
2465;DHT22;1244;54.326;10.074;2023-05-01T14:06:41;21.10;88.50
2465;DHT22;1244;54.326;10.074;2023-05-01T14:09:08;21.30;88.00
2465;DHT22;1244;54.326;10.074;2023-05-01T14:11:41;21.70;90.80
2465;DHT22;1244;54.326;10.074;2023-05-01T14:14:08;22.00;90.10
2465;DHT22;1244;54.326;10.074;2023-05-01T14:16:33;22.10;90.70
2465;DHT22;1244;54.326;10.074;2023-05-01T14:18:59;21.60;87.60
2465;DHT22;1244;54.326;10.074;2023-05-01T14:21:25;21.20;87.10
2465;DHT22;1244;54.326;10.074;2023-05-01T14:23:52;21.50;90.50
2465;DHT22;1244;54.326;10.074;2023-05-01T14:26:19;21.60;89.30
2465;DHT22;1244;54.326;10.074;2023-05-01T14:28:46;21.50;85.40
2465;DHT22;1244;54.326;10.074;2023-05-01T14:31:25;21.70;87.70
2465;DHT22;1244;54.326;10.074;2023-05-01T14:33:59;21.30;86.90
2465;DHT22;1244;54.326;10.074;2023-05-01T14:36:26;20.90;87.70
2465;DHT22;1244;54.326;10.074;2023-05-01T14:38:57;20.30;87.00
2465;DHT22;1244;54.326;10.074;2023-05-01T14:41:23;20.60;88.70
2465;DHT22;1244;54.326;10.074;2023-05-01T14:43:49;20.70;90.80
2465;DHT22;1244;54.326;10.074;2023-05-01T14:46:28;21.10;90.20
2465;DHT22;1244;54.326;10.074;2023-05-01T14:48:54;20.80;90.70
2465;DHT22;1244;54.326;10.074;2023-05-01T14:51:20;20.60;91.20
2465;DHT22;1244;54.326;10.074;2023-05-01T14:53:46;21.30;92.50
2465;DHT22;1244;54.326;10.074;2023-05-01T14:56:11;20.80;90.70
2465;DHT22;1244;54.326;10.074;2023-05-01T14:58:37;20.60;90.00
2465;DHT22;1244;54.326;10.074;2023-05-01T15:01:03;21.00;90.50
2465;DHT22;1244;54.326;10.074;2023-05-01T15:03:28;20.20;90.50
2465;DHT22;1244;54.326;10.074;2023-05-01T15:05:54;20.20;90.50
2465;DHT22;1244;54.326;10.074;2023-05-01T15:08:21;20.50;92.20
2465;DHT22;1244;54.326;10.074;2023-05-01T15:10:46;20.90;91.60
2465;DHT22;1244;54.326;10.074;2023-05-01T15:13:12;20.40;92.00
2465;DHT22;1244;54.326;10.074;2023-05-01T15:15:37;20.10;91.60
2465;DHT22;1244;54.326;10.074;2023-05-01T15:18:03;19.70;90.90
2465;DHT22;1244;54.326;10.074;2023-05-01T15:20:29;19.90;90.70
2465;DHT22;1244;54.326;10.074;2023-05-01T15:22:55;19.90;91.80
2465;DHT22;1244;54.326;10.074;2023-05-01T15:25:20;19.90;93.20
2465;DHT22;1244;54.326;10.074;2023-05-01T15:27:46;19.70;93.20
2465;DHT22;1244;54.326;10.074;2023-05-01T15:30:13;19.50;92.30
2465;DHT22;1244;54.326;10.074;2023-05-01T15:32:39;19.20;92.30
2465;DHT22;1244;54.326;10.074;2023-05-01T15:35:04;19.30;94.00
2465;DHT22;1244;54.326;10.074;2023-05-01T15:37:30;19.20;93.50
2465;DHT22;1244;54.326;10.074;2023-05-01T15:39:56;19.20;94.60
2465;DHT22;1244;54.326;10.074;2023-05-01T15:42:22;19.30;94.90
2465;DHT22;1244;54.326;10.074;2023-05-01T15:44:47;19.40;94.20
2465;DHT22;1244;54.326;10.074;2023-05-01T15:47:13;19.40;94.60
2465;DHT22;1244;54.326;10.074;2023-05-01T15:49:39;19.40;94.50
2465;DHT22;1244;54.326;10.074;2023-05-01T15:52:04;19.10;94.30
2465;DHT22;1244;54.326;10.074;2023-05-01T15:54:30;18.70;94.20
2465;DHT22;1244;54.326;10.074;2023-05-01T15:56:56;18.80;94.30
2465;DHT22;1244;54.326;10.074;2023-05-01T15:59:22;18.60;93.10
2465;DHT22;1244;54.326;10.074;2023-05-01T16:01:51;18.50;94.60
2465;DHT22;1244;54.326;10.074;2023-05-01T16:04:17;18.80;93.30
2465;DHT22;1244;54.326;10.074;2023-05-01T16:06:42;18.80;94.70
2465;DHT22;1244;54.326;10.074;2023-05-01T16:09:08;18.60;94.80
2465;DHT22;1244;54.326;10.074;2023-05-01T16:11:35;18.60;94.80
2465;DHT22;1244;54.326;10.074;2023-05-01T16:14:00;18.60;94.80
2465;DHT22;1244;54.326;10.074;2023-05-01T16:16:27;18.40;94.50
2465;DHT22;1244;54.326;10.074;2023-05-01T16:18:57;18.40;93.70
2465;DHT22;1244;54.326;10.074;2023-05-01T16:21:24;18.20;94.30
2465;DHT22;1244;54.326;10.074;2023-05-01T16:23:51;18.30;93.50
2465;DHT22;1244;54.326;10.074;2023-05-01T16:26:24;17.90;93.50
2465;DHT22;1244;54.326;10.074;2023-05-01T16:28:54;18.10;95.00
2465;DHT22;1244;54.326;10.074;2023-05-01T16:31:21;18.10;95.20
2465;DHT22;1244;54.326;10.074;2023-05-01T16:33:47;17.70;94.50
2465;DHT22;1244;54.326;10.074;2023-05-01T16:36:15;17.60;94.70
2465;DHT22;1244;54.326;10.074;2023-05-01T16:38:42;17.40;94.50
2465;DHT22;1244;54.326;10.074;2023-05-01T16:41:08;17.20;94.70
2465;DHT22;1244;54.326;10.074;2023-05-01T16:43:34;17.40;95.80
2465;DHT22;1244;54.326;10.074;2023-05-01T16:45:59;17.40;96.10
2465;DHT22;1244;54.326;10.074;2023-05-01T16:48:25;17.40;94.70
2465;DHT22;1244;54.326;10.074;2023-05-01T16:50:51;17.20;96.00
2465;DHT22;1244;54.326;10.074;2023-05-01T16:53:16;17.30;94.90
2465;DHT22;1244;54.326;10.074;2023-05-01T16:55:42;17.30;96.60
2465;DHT22;1244;54.326;10.074;2023-05-01T16:58:08;17.20;95.70
2465;DHT22;1244;54.326;10.074;2023-05-01T17:00:33;16.60;95.50
2465;DHT22;1244;54.326;10.074;2023-05-01T17:02:59;16.70;97.40
2465;DHT22;1244;54.326;10.074;2023-05-01T17:05:24;16.60;96.50
2465;DHT22;1244;54.326;10.074;2023-05-01T17:07:50;16.80;97.30
2465;DHT22;1244;54.326;10.074;2023-05-01T17:10:16;16.90;97.70
2465;DHT22;1244;54.326;10.074;2023-05-01T17:12:41;16.60;97.30
2465;DHT22;1244;54.326;10.074;2023-05-01T17:15:08;16.60;98.00
2465;DHT22;1244;54.326;10.074;2023-05-01T17:17:34;16.50;98.40
2465;DHT22;1244;54.326;10.074;2023-05-01T17:20:01;16.50;98.10
2465;DHT22;1244;54.326;10.074;2023-05-01T17:22:29;16.40;96.10
2465;DHT22;1244;54.326;10.074;2023-05-01T17:24:55;16.30;97.40
2465;DHT22;1244;54.326;10.074;2023-05-01T17:27:21;16.30;97.30
2465;DHT22;1244;54.326;10.074;2023-05-01T17:29:47;16.40;97.60
2465;DHT22;1244;54.326;10.074;2023-05-01T17:32:12;16.00;97.20
2465;DHT22;1244;54.326;10.074;2023-05-01T17:34:38;16.10;97.40
2465;DHT22;1244;54.326;10.074;2023-05-01T17:37:04;16.00;98.00
2465;DHT22;1244;54.326;10.074;2023-05-01T17:39:30;15.90;98.10
2465;DHT22;1244;54.326;10.074;2023-05-01T17:41:55;15.90;98.50
2465;DHT22;1244;54.326;10.074;2023-05-01T17:44:21;15.70;99.90
2465;DHT22;1244;54.326;10.074;2023-05-01T17:46:46;15.70;99.90
2465;DHT22;1244;54.326;10.074;2023-05-01T17:49:12;15.80;99.90
2465;DHT22;1244;54.326;10.074;2023-05-01T17:51:38;15.80;99.90
2465;DHT22;1244;54.326;10.074;2023-05-01T17:54:04;15.80;99.90
2465;DHT22;1244;54.326;10.074;2023-05-01T17:56:30;15.70;99.90
2465;DHT22;1244;54.326;10.074;2023-05-01T17:58:55;15.60;99.90
2465;DHT22;1244;54.326;10.074;2023-05-01T18:01:21;15.60;99.90
2465;DHT22;1244;54.326;10.074;2023-05-01T18:03:46;15.50;99.90
2465;DHT22;1244;54.326;10.074;2023-05-01T18:06:13;15.30;99.90
2465;DHT22;1244;54.326;10.074;2023-05-01T18:08:38;15.40;99.90